createdAt,value
2023-01-29T00:02:11.044Z,100834.56
2023-01-29T00:04:39.231Z,100835.34
2023-01-29T00:07:07.207Z,100832.91
2023-01-29T00:09:35.165Z,100829.78
2023-01-29T00:12:03.345Z,100836.69
2023-01-29T00:14:31.523Z,100834.56
2023-01-29T00:16:59.563Z,100826.06
2023-01-29T00:19:28.978Z,100825.59
2023-01-29T00:21:57.204Z,100820.06
2023-01-29T00:24:25.433Z,100822.16
2023-01-29T00:26:53.453Z,100827.44
2023-01-29T00:29:22.060Z,100824.81
2023-01-29T00:31:50.215Z,100832.66
2023-01-29T00:34:18.431Z,100830.84
2023-01-29T00:36:47.882Z,100822.34
2023-01-29T00:39:15.847Z,100817.06
2023-01-29T00:42:01.019Z,100816.88
2023-01-29T00:44:46.817Z,100815.09
2023-01-29T00:47:34.163Z,100811.94
2023-01-29T00:50:02.983Z,100820.22
2023-01-29T00:52:32.597Z,100812.38
2023-01-29T00:55:01.921Z,100818.31
2023-01-29T00:57:31.673Z,100813.69
2023-01-29T01:00:00.245Z,100818.22
2023-01-29T01:02:45.696Z,100814.53
2023-01-29T01:05:18.312Z,100815.88
2023-01-29T01:07:48.686Z,100811.94
2023-01-29T01:10:23.294Z,100807.31
2023-01-29T01:12:56.535Z,100806.28
2023-01-29T01:15:25.976Z,100800.69
2023-01-29T01:17:55.734Z,100794.72
2023-01-29T01:20:24.351Z,100794.66
2023-01-29T01:22:55.216Z,100797.88
2023-01-29T01:25:24.291Z,100805.88
2023-01-29T01:27:54.053Z,100802.09
2023-01-29T01:30:22.925Z,100802.09
2023-01-29T01:32:50.920Z,100803.59
2023-01-29T01:35:19.335Z,100798.59
2023-01-29T01:37:47.383Z,100810.13
2023-01-29T01:40:19.646Z,100807.50
2023-01-29T01:42:50.352Z,100805.44
2023-01-29T01:45:25.933Z,100803.66
2023-01-29T01:47:57.448Z,100806.03
2023-01-29T01:50:30.806Z,100809.59
2023-01-29T01:53:04.631Z,100812.34
2023-01-29T01:55:37.060Z,100810.47
2023-01-29T01:58:10.086Z,100813.00
2023-01-29T02:00:38.280Z,100820.84
2023-01-29T02:03:25.740Z,100821.72
2023-01-29T02:06:14.489Z,100817.38
2023-01-29T02:09:06.711Z,100815.47
2023-01-29T02:11:36.634Z,100818.31
2023-01-29T02:14:04.844Z,100819.69
2023-01-29T02:16:35.628Z,100812.16
2023-01-29T02:19:05.025Z,100815.31
2023-01-29T02:21:59.441Z,100812.38
2023-01-29T02:25:09.837Z,100821.63
2023-01-29T02:28:13.176Z,100824.94
2023-01-29T02:30:46.994Z,100829.88
2023-01-29T02:33:23.634Z,100826.63
2023-01-29T02:35:58.977Z,100820.00
2023-01-29T02:38:33.032Z,100819.81
2023-01-29T02:41:06.292Z,100820.84
2023-01-29T02:43:46.841Z,100826.63
2023-01-29T02:46:23.776Z,100830.31
2023-01-29T02:48:56.979Z,100830.59
2023-01-29T02:51:31.869Z,100831.94
2023-01-29T02:54:04.275Z,100836.38
2023-01-29T02:56:39.222Z,100831.75
2023-01-29T02:59:14.019Z,100830.63
2023-01-29T03:01:47.278Z,100826.09
2023-01-29T03:04:21.113Z,100837.03
2023-01-29T03:06:54.678Z,100832.50
2023-01-29T03:09:27.943Z,100834.56
2023-01-29T03:12:01.225Z,100835.44
2023-01-29T03:15:01.469Z,100842.41
2023-01-29T03:17:37.101Z,100842.31
2023-01-29T03:20:10.557Z,100834.06
2023-01-29T03:22:40.617Z,100831.06
2023-01-29T03:25:29.285Z,100827.16
2023-01-29T03:28:18.385Z,100826.00
2023-01-29T03:31:09.273Z,100830.91
2023-01-29T03:33:43.632Z,100834.00
2023-01-29T03:36:16.681Z,100839.03
2023-01-29T03:38:45.410Z,100842.88
2023-01-29T03:41:24.492Z,100835.38
2023-01-29T03:44:00.998Z,100840.47
2023-01-29T03:46:34.367Z,100843.97
2023-01-29T03:49:08.506Z,100843.78
2023-01-29T03:51:42.761Z,100841.84
2023-01-29T03:54:19.572Z,100842.13
2023-01-29T03:56:58.958Z,100843.22
2023-01-29T03:59:38.132Z,100849.19
2023-01-29T04:02:12.060Z,100857.59
2023-01-29T04:04:44.885Z,100864.50
2023-01-29T04:07:15.917Z,100862.38
2023-01-29T04:09:48.998Z,100861.00
2023-01-29T04:12:24.001Z,100856.00
2023-01-29T04:14:53.520Z,100852.09
2023-01-29T04:17:30.044Z,100853.59
2023-01-29T04:19:58.143Z,100855.91
2023-01-29T04:22:31.596Z,100849.94
2023-01-29T04:25:02.884Z,100853.66
2023-01-29T04:27:42.770Z,100857.63
2023-01-29T04:30:35.179Z,100855.66
2023-01-29T04:33:18.624Z,100857.53
2023-01-29T04:36:06.175Z,100860.09
2023-01-29T04:38:48.614Z,100869.78
2023-01-29T04:41:23.138Z,100861.50
2023-01-29T04:44:00.813Z,100854.50
2023-01-29T04:46:36.769Z,100859.59
2023-01-29T04:49:19.046Z,100856.50
2023-01-29T04:51:52.784Z,100855.50
2023-01-29T04:54:33.980Z,100857.41
2023-01-29T04:57:10.733Z,100865.50
2023-01-29T04:59:45.141Z,100860.66
2023-01-29T05:02:14.464Z,100863.44
2023-01-29T05:04:47.009Z,100857.00
2023-01-29T05:07:16.461Z,100864.28
2023-01-29T05:09:47.197Z,100858.97
2023-01-29T05:12:18.794Z,100859.81
2023-01-29T05:14:48.754Z,100871.53
2023-01-29T05:17:19.883Z,100872.94
2023-01-29T05:19:50.069Z,100883.00
2023-01-29T05:22:22.715Z,100885.63
2023-01-29T05:24:51.257Z,100881.47
2023-01-29T05:27:41.315Z,100880.25
2023-01-29T05:30:11.571Z,100883.16
2023-01-29T05:32:39.814Z,100885.63
2023-01-29T05:35:09.663Z,100890.56
2023-01-29T05:37:37.632Z,100890.91
2023-01-29T05:40:08.854Z,100888.75
2023-01-29T05:42:36.895Z,100890.38
2023-01-29T05:45:05.394Z,100891.91
2023-01-29T05:47:33.413Z,100890.03
2023-01-29T05:50:01.404Z,100892.31
2023-01-29T05:52:30.745Z,100892.25
2023-01-29T05:54:59.164Z,100893.38
2023-01-29T05:57:27.151Z,100904.72
2023-01-29T05:59:55.149Z,100904.13
2023-01-29T06:02:23.501Z,100902.09
2023-01-29T06:04:52.766Z,100909.25
2023-01-29T06:07:20.759Z,100909.25
2023-01-29T06:09:50.154Z,100914.72
2023-01-29T06:12:18.378Z,100914.72
2023-01-29T06:14:46.686Z,100917.34
2023-01-29T06:17:14.721Z,100916.38
2023-01-29T06:19:42.949Z,100925.78
2023-01-29T06:22:10.999Z,100919.09
2023-01-29T06:24:38.958Z,100921.31
2023-01-29T06:27:08.296Z,100920.00
2023-01-29T06:29:36.634Z,100920.38
2023-01-29T06:32:05.212Z,100915.38
2023-01-29T06:34:33.315Z,100917.94
2023-01-29T06:37:01.319Z,100916.91
2023-01-29T06:39:29.268Z,100917.13
2023-01-29T06:41:57.398Z,100916.59
2023-01-29T06:44:27.182Z,100921.88
2023-01-29T06:46:55.265Z,100924.75
2023-01-29T06:49:23.323Z,100921.88
2023-01-29T06:51:51.311Z,100921.31
2023-01-29T06:54:19.299Z,100919.44
2023-01-29T06:56:47.308Z,100916.38
2023-01-29T06:59:15.488Z,100916.38
2023-01-29T07:01:44.985Z,100919.78
2023-01-29T07:04:13.178Z,100915.53
2023-01-29T07:06:41.377Z,100928.56
2023-01-29T07:09:09.411Z,100919.09
2023-01-29T07:11:38.071Z,100925.50
2023-01-29T07:14:06.179Z,100924.31
2023-01-29T07:16:34.492Z,100921.31
2023-01-29T07:19:04.071Z,100916.03
2023-01-29T07:21:32.191Z,100922.50
2023-01-29T07:24:00.392Z,100918.94
2023-01-29T07:26:28.546Z,100923.47
2023-01-29T07:28:56.551Z,100924.41
2023-01-29T07:31:24.852Z,100933.25
2023-01-29T07:33:52.928Z,100933.94
2023-01-29T07:36:22.343Z,100942.72
2023-01-29T07:38:51.522Z,100934.97
2023-01-29T07:41:19.955Z,100939.81
2023-01-29T07:43:48.206Z,100944.59
2023-01-29T07:46:16.227Z,100947.66
2023-01-29T07:48:44.250Z,100949.88
2023-01-29T07:51:12.258Z,100949.47
2023-01-29T07:53:42.030Z,100949.13
2023-01-29T07:56:09.988Z,100957.41
2023-01-29T07:58:38.095Z,100956.81
2023-01-29T08:01:08.553Z,100950.81
2023-01-29T08:03:37.123Z,100954.06
2023-01-29T08:06:05.799Z,100953.13
2023-01-29T08:08:34.033Z,100960.13
2023-01-29T08:11:05.718Z,100950.06
2023-01-29T08:13:34.602Z,100945.19
2023-01-29T08:16:03.340Z,100964.38
2023-01-29T08:18:32.399Z,100954.59
2023-01-29T08:21:01.707Z,100952.72
2023-01-29T08:23:29.681Z,100958.06
2023-01-29T08:25:57.865Z,100959.31
2023-01-29T08:28:27.495Z,100954.69
2023-01-29T08:30:55.532Z,100954.03
2023-01-29T08:33:38.090Z,100952.81
2023-01-29T08:36:08.335Z,100967.50
2023-01-29T08:38:36.739Z,100952.38
2023-01-29T08:41:05.327Z,100959.63
2023-01-29T08:43:35.397Z,100960.03
2023-01-29T08:46:05.236Z,100965.22
2023-01-29T08:48:33.590Z,100966.53
2023-01-29T08:51:02.706Z,100969.66
2023-01-29T08:53:30.676Z,100970.91
2023-01-29T08:55:59.032Z,100970.97
2023-01-29T08:58:27.056Z,100974.97
2023-01-29T09:00:56.472Z,100968.91
2023-01-29T09:03:24.506Z,100975.16
2023-01-29T09:05:52.820Z,100967.78
2023-01-29T09:08:20.800Z,100970.63
2023-01-29T09:10:48.913Z,100966.00
2023-01-29T09:13:16.915Z,100965.59
2023-01-29T09:15:44.891Z,100958.50
2023-01-29T09:18:14.396Z,100966.00
2023-01-29T09:20:42.372Z,100957.28
2023-01-29T09:23:12.093Z,100954.09
2023-01-29T09:25:40.153Z,100948.94
2023-01-29T09:28:08.226Z,100951.56
2023-01-29T09:30:38.219Z,100942.88
2023-01-29T09:33:07.271Z,100964.09
2023-01-29T09:35:36.846Z,100962.94
2023-01-29T09:38:04.834Z,100975.72
2023-01-29T09:40:39.364Z,100971.16
2023-01-29T09:43:14.511Z,100977.97
2023-01-29T09:45:51.703Z,100977.03
2023-01-29T09:48:21.578Z,100983.75
2023-01-29T09:50:55.231Z,100985.66
2023-01-29T09:53:29.521Z,100998.72
2023-01-29T09:56:02.291Z,101006.75
2023-01-29T09:58:34.506Z,101006.47
2023-01-29T10:01:13.753Z,101005.78
2023-01-29T10:04:07.936Z,101008.84
2023-01-29T10:06:52.618Z,101004.38
2023-01-29T10:09:44.387Z,101000.25
2023-01-29T10:12:28.201Z,101002.59
2023-01-29T10:15:06.935Z,101008.34
2023-01-29T10:17:55.756Z,101009.25
2023-01-29T10:20:44.190Z,101010.91
2023-01-29T10:23:22.655Z,101017.63
2023-01-29T10:25:51.195Z,101016.69
2023-01-29T10:28:22.185Z,101010.44
2023-01-29T10:30:52.249Z,101015.06
2023-01-29T10:33:26.651Z,101017.75
2023-01-29T10:35:59.376Z,101021.81
2023-01-29T10:38:41.265Z,101012.16
2023-01-29T10:41:38.032Z,101019.34
2023-01-29T10:44:25.431Z,101019.91
2023-01-29T10:47:08.900Z,101019.91
2023-01-29T10:49:50.857Z,101014.59
2023-01-29T10:52:34.395Z,101015.03
2023-01-29T10:55:17.071Z,101015.13
2023-01-29T10:58:02.940Z,101012.47
2023-01-29T11:00:36.460Z,101018.00
2023-01-29T11:03:26.949Z,101007.19
2023-01-29T11:06:04.038Z,101000.03
2023-01-29T11:08:38.668Z,100993.00
2023-01-29T11:11:13.456Z,100990.47
2023-01-29T11:13:46.691Z,100988.13
2023-01-29T11:16:14.908Z,101000.41
2023-01-29T11:18:55.990Z,100993.94
2023-01-29T11:21:24.943Z,100999.28
2023-01-29T11:24:07.441Z,100993.97
2023-01-29T11:26:41.441Z,100989.50
2023-01-29T11:29:32.856Z,100996.28
2023-01-29T11:32:02.702Z,101000.16
2023-01-29T11:34:32.368Z,101000.34
2023-01-29T11:37:01.817Z,101007.75
2023-01-29T11:39:33.213Z,100997.59
2023-01-29T11:42:04.507Z,100983.63
2023-01-29T11:44:34.898Z,100992.94
2023-01-29T11:47:13.846Z,100987.03
2023-01-29T11:49:46.771Z,100981.75
2023-01-29T11:52:18.372Z,100973.81
2023-01-29T11:54:51.549Z,100973.63
2023-01-29T11:57:34.234Z,100968.34
2023-01-29T12:00:06.610Z,100966.56
2023-01-29T12:02:38.497Z,100963.75
2023-01-29T12:05:15.593Z,100964.41
2023-01-29T12:07:45.531Z,100957.78
2023-01-29T12:10:33.635Z,100957.63
2023-01-29T12:13:26.702Z,100948.03
2023-01-29T12:16:14.425Z,100957.50
2023-01-29T12:18:45.707Z,100945.91
2023-01-29T12:21:19.797Z,100939.88
2023-01-29T12:23:54.826Z,100939.66
2023-01-29T12:26:31.111Z,100934.22
2023-01-29T12:29:25.344Z,100934.88
2023-01-29T12:32:02.692Z,100927.66
2023-01-29T12:34:39.249Z,100931.88
2023-01-29T12:37:18.026Z,100928.59
2023-01-29T12:39:46.217Z,100925.00
2023-01-29T12:42:18.942Z,100923.09
2023-01-29T12:44:53.150Z,100917.13
2023-01-29T12:47:24.771Z,100915.41
2023-01-29T12:49:57.013Z,100904.59
2023-01-29T12:52:38.335Z,100902.47
2023-01-29T12:55:17.437Z,100904.88
2023-01-29T12:57:52.056Z,100899.81
2023-01-29T13:00:24.211Z,100898.66
2023-01-29T13:02:59.996Z,100894.81
2023-01-29T13:05:32.083Z,100894.06
2023-01-29T13:08:06.448Z,100904.03
2023-01-29T13:10:39.944Z,100896.31
2023-01-29T13:13:16.867Z,100891.94
2023-01-29T13:15:48.229Z,100888.97
2023-01-29T13:18:37.820Z,100898.53
2023-01-29T13:21:06.678Z,100899.47
2023-01-29T13:23:39.085Z,100900.09
2023-01-29T13:26:07.819Z,100904.09
2023-01-29T13:28:36.095Z,100905.50
2023-01-29T13:31:28.487Z,100903.66
2023-01-29T13:34:03.896Z,100897.75
2023-01-29T13:36:32.902Z,100904.72
2023-01-29T13:39:06.919Z,100900.16
2023-01-29T13:41:41.642Z,100901.25
2023-01-29T13:44:21.483Z,100901.41
2023-01-29T13:46:56.733Z,100906.75
2023-01-29T13:49:38.748Z,100906.56
2023-01-29T13:52:22.447Z,100904.78
2023-01-29T13:54:58.091Z,100905.22
2023-01-29T13:57:51.117Z,100911.50
2023-01-29T14:00:56.491Z,100906.25
2023-01-29T14:04:05.934Z,100898.88
2023-01-29T14:06:49.568Z,100903.41
2023-01-29T14:09:36.095Z,100898.44
2023-01-29T14:12:04.984Z,100876.16
2023-01-29T14:15:00.283Z,100889.28
2023-01-29T14:17:29.853Z,100894.03
2023-01-29T14:20:04.425Z,100901.31
2023-01-29T14:22:34.583Z,100908.72
2023-01-29T14:25:06.223Z,100898.31
2023-01-29T14:27:36.909Z,100897.75
2023-01-29T14:30:10.983Z,100899.44
2023-01-29T14:32:41.702Z,100909.22
2023-01-29T14:35:22.102Z,100907.69
2023-01-29T14:37:53.692Z,100912.16
2023-01-29T14:40:25.375Z,100910.34
2023-01-29T14:43:01.261Z,100904.75
2023-01-29T14:45:30.830Z,100904.16
2023-01-29T14:48:15.087Z,100903.22
2023-01-29T14:50:59.255Z,100912.59
2023-01-29T14:53:41.928Z,100910.53
2023-01-29T14:56:16.546Z,100912.16
2023-01-29T14:58:48.112Z,100910.63
2023-01-29T15:01:22.280Z,100913.34
2023-01-29T15:03:53.479Z,100906.09
2023-01-29T15:06:30.180Z,100911.75
2023-01-29T15:09:08.433Z,100906.38
2023-01-29T15:11:48.398Z,100913.19
2023-01-29T15:14:25.052Z,100906.16
2023-01-29T15:17:11.294Z,100902.56
2023-01-29T15:19:44.885Z,100908.16
2023-01-29T15:22:15.978Z,100905.88
2023-01-29T15:24:45.268Z,100907.28
2023-01-29T15:27:17.024Z,100907.56
2023-01-29T15:29:49.692Z,100904.63
2023-01-29T15:32:32.424Z,100910.78
2023-01-29T15:35:02.023Z,100909.91
2023-01-29T15:37:34.012Z,100912.03
2023-01-29T15:40:03.119Z,100911.81
2023-01-29T15:42:44.746Z,100911.06
2023-01-29T15:45:23.681Z,100905.41
2023-01-29T15:47:52.818Z,100910.44
2023-01-29T15:50:22.208Z,100912.22
2023-01-29T15:52:54.782Z,100917.28
2023-01-29T15:55:24.840Z,100915.09
2023-01-29T15:57:53.326Z,100917.97
2023-01-29T16:00:24.815Z,100916.03
2023-01-29T16:02:52.976Z,100914.16
2023-01-29T16:05:23.938Z,100920.19
2023-01-29T16:07:55.632Z,100928.91
2023-01-29T16:10:26.018Z,100925.13
2023-01-29T16:12:54.627Z,100934.13
2023-01-29T16:15:32.422Z,100921.72
2023-01-29T16:18:01.832Z,100935.91
2023-01-29T16:20:37.711Z,100926.78
2023-01-29T16:23:08.610Z,100937.53
2023-01-29T16:25:40.114Z,100936.00
2023-01-29T16:28:11.053Z,100938.75
2023-01-29T16:30:40.244Z,100942.63
2023-01-29T16:33:13.145Z,100947.00
2023-01-29T16:35:41.835Z,100942.88
2023-01-29T16:38:28.018Z,100946.28
2023-01-29T16:41:20.163Z,100939.09
2023-01-29T16:43:53.485Z,100957.38
2023-01-29T16:46:27.503Z,100955.56
2023-01-29T16:48:55.998Z,100958.31
2023-01-29T16:51:27.865Z,100959.72
2023-01-29T16:54:03.069Z,100960.09
2023-01-29T16:56:34.145Z,100962.38
2023-01-29T16:59:04.921Z,100969.38
2023-01-29T17:01:35.712Z,100970.41
2023-01-29T17:04:09.186Z,100967.47
2023-01-29T17:06:37.717Z,100968.34
2023-01-29T17:09:08.359Z,100971.34
2023-01-29T17:11:41.777Z,100969.75
2023-01-29T17:14:11.395Z,100971.81
2023-01-29T17:16:51.305Z,100976.16
2023-01-29T17:19:21.701Z,100984.69
2023-01-29T17:21:49.941Z,100988.56
2023-01-29T17:24:19.350Z,100984.59
2023-01-29T17:26:47.755Z,100987.06
2023-01-29T17:29:19.075Z,100993.13
2023-01-29T17:31:48.454Z,100990.09
2023-01-29T17:34:18.667Z,100995.72
2023-01-29T17:36:47.234Z,100992.75
2023-01-29T17:39:20.211Z,101001.44
2023-01-29T17:41:51.701Z,101001.91
2023-01-29T17:44:19.826Z,101008.84
2023-01-29T17:46:48.563Z,101006.78
2023-01-29T17:49:24.283Z,100980.91
2023-01-29T17:51:52.943Z,101003.41
2023-01-29T17:54:25.741Z,101011.94
2023-01-29T17:56:54.924Z,101018.00
2023-01-29T17:59:24.789Z,101016.88
2023-01-29T18:01:53.384Z,101015.94
2023-01-29T18:04:21.514Z,101011.50
2023-01-29T18:06:51.569Z,101023.06
2023-01-29T18:09:22.161Z,101023.81
2023-01-29T18:11:53.448Z,101025.03
2023-01-29T18:14:22.143Z,101028.16
2023-01-29T18:16:50.279Z,101035.25
2023-01-29T18:19:22.343Z,101030.81
2023-01-29T18:21:50.698Z,101036.22
2023-01-29T18:24:20.498Z,101034.41
2023-01-29T18:26:48.795Z,101042.44
2023-01-29T18:29:18.277Z,101039.91
2023-01-29T18:31:49.456Z,101032.78
2023-01-29T18:34:17.490Z,101035.63
2023-01-29T18:36:47.782Z,101039.91
2023-01-29T18:39:16.429Z,101038.84
2023-01-29T18:41:44.791Z,101029.78
2023-01-29T18:44:13.095Z,101018.59
2023-01-29T18:46:42.821Z,101034.91
2023-01-29T18:49:11.823Z,101035.94
2023-01-29T18:51:39.914Z,101034.78
2023-01-29T18:54:07.959Z,101037.16
2023-01-29T18:56:35.994Z,101025.78
2023-01-29T18:59:05.701Z,101030.06
2023-01-29T19:01:34.757Z,101041.59
2023-01-29T19:04:04.372Z,101034.69
2023-01-29T19:06:37.033Z,101036.31
2023-01-29T19:09:05.438Z,101032.78
2023-01-29T19:11:33.432Z,101029.38
2023-01-29T19:14:01.489Z,101028.63
2023-01-29T19:16:29.559Z,101025.13
2023-01-29T19:18:58.665Z,101031.09
2023-01-29T19:21:28.572Z,101031.25
2023-01-29T19:23:57.165Z,101032.19
2023-01-29T19:26:25.383Z,101034.66
2023-01-29T19:28:53.451Z,101039.78
2023-01-29T19:31:21.679Z,101036.00
2023-01-29T19:33:49.844Z,101041.13
2023-01-29T19:36:17.846Z,101046.22
2023-01-29T19:38:49.224Z,101054.38
2023-01-29T19:41:17.421Z,101042.59
2023-01-29T19:43:46.426Z,101041.84
2023-01-29T19:46:14.742Z,101038.94
2023-01-29T19:48:42.904Z,101031.72
2023-01-29T19:51:12.295Z,101052.19
2023-01-29T19:53:43.898Z,101053.78
2023-01-29T19:56:15.428Z,101055.59
2023-01-29T19:58:43.853Z,101056.44
2023-01-29T20:01:16.034Z,101063.22
2023-01-29T20:03:46.475Z,101054.69
2023-01-29T20:06:16.793Z,101074.69
2023-01-29T20:08:46.574Z,101072.78
2023-01-29T20:11:17.307Z,101068.53
2023-01-29T20:13:48.514Z,101083.38
2023-01-29T20:16:17.400Z,101080.81
2023-01-29T20:18:46.353Z,101086.78
2023-01-29T20:21:17.214Z,101079.63
2023-01-29T20:23:46.121Z,101084.25
2023-01-29T20:26:17.151Z,101085.44
2023-01-29T20:28:47.452Z,101093.31
2023-01-29T20:31:16.066Z,101100.66
2023-01-29T20:33:44.367Z,101094.59
2023-01-29T20:36:14.874Z,101090.66
2023-01-29T20:38:43.076Z,101097.06
2023-01-29T20:41:16.230Z,101089.81
2023-01-29T20:43:44.779Z,101100.66
2023-01-29T20:46:13.207Z,101104.00
2023-01-29T20:48:42.132Z,101105.53
2023-01-29T20:51:15.320Z,101105.44
2023-01-29T20:53:45.484Z,101116.78
2023-01-29T20:56:17.353Z,101115.34
2023-01-29T20:58:46.720Z,101117.16
2023-01-29T21:01:17.060Z,101111.84
2023-01-29T21:03:46.368Z,101113.66
2023-01-29T21:06:15.860Z,101118.09
2023-01-29T21:08:43.968Z,101116.38
2023-01-29T21:11:12.375Z,101119.53
2023-01-29T21:13:42.686Z,101118.69
2023-01-29T21:16:11.835Z,101117.91
2023-01-29T21:18:40.143Z,101129.28
2023-01-29T21:21:08.118Z,101123.97
2023-01-29T21:23:36.148Z,101129.38
2023-01-29T21:26:04.738Z,101129.19
2023-01-29T21:28:33.391Z,101128.88
2023-01-29T21:31:07.130Z,101127.47
2023-01-29T21:33:35.626Z,101138.06
2023-01-29T21:36:04.079Z,101131.75
2023-01-29T21:38:32.410Z,101132.88
2023-01-29T21:41:01.257Z,101131.16
2023-01-29T21:43:28.663Z,101126.97
2023-01-29T21:45:57.745Z,101131.34
2023-01-29T21:48:27.985Z,101128.88
2023-01-29T21:50:56.299Z,101134.16
2023-01-29T21:53:24.307Z,101126.22
2023-01-29T21:55:52.332Z,101130.28
2023-01-29T21:58:21.068Z,101128.06
2023-01-29T22:00:49.736Z,101128.66
2023-01-29T22:03:17.821Z,101124.31
2023-01-29T22:05:47.177Z,101126.38
2023-01-29T22:08:15.163Z,101127.72
2023-01-29T22:10:43.257Z,101122.16
2023-01-29T22:13:11.657Z,101121.88
2023-01-29T22:15:39.647Z,101123.56
2023-01-29T22:18:07.653Z,101122.63
2023-01-29T22:20:36.754Z,101124.34
2023-01-29T22:23:06.149Z,101122.63
2023-01-29T22:25:34.619Z,101119.13
2023-01-29T22:28:02.641Z,101114.84
2023-01-29T22:30:30.763Z,101116.56
2023-01-29T22:32:58.799Z,101121.50
2023-01-29T22:35:26.878Z,101125.94
2023-01-29T22:37:55.110Z,101120.91
2023-01-29T22:40:24.583Z,101115.41
2023-01-29T22:42:52.550Z,101121.75
2023-01-29T22:45:20.683Z,101126.78
2023-01-29T22:47:48.873Z,101121.31
2023-01-29T22:50:17.382Z,101118.34
2023-01-29T22:52:53.554Z,101123.53
2023-01-29T22:55:21.959Z,101120.81
2023-01-29T22:57:51.474Z,101126.00
2023-01-29T23:00:20.689Z,101124.22
2023-01-29T23:02:49.171Z,101127.56
2023-01-29T23:05:17.672Z,101122.22
2023-01-29T23:07:45.891Z,101120.91
2023-01-29T23:10:15.337Z,101124.66
2023-01-29T23:12:43.429Z,101127.75
2023-01-29T23:15:12.914Z,101125.31
2023-01-29T23:17:40.969Z,101121.47
2023-01-29T23:20:10.241Z,101124.88
2023-01-29T23:22:38.626Z,101130.34
2023-01-29T23:25:07.669Z,101114.44
2023-01-29T23:27:34.679Z,101119.50
2023-01-29T23:30:02.889Z,101118.03
2023-01-29T23:32:32.785Z,101121.69
2023-01-29T23:35:01.026Z,101122.75
2023-01-29T23:37:29.297Z,101116.22
2023-01-29T23:39:57.401Z,101118.22
2023-01-29T23:42:25.576Z,101104.91
2023-01-29T23:44:53.577Z,101106.78
2023-01-29T23:47:21.852Z,101100.03
2023-01-29T23:49:52.866Z,101100.63
2023-01-29T23:52:21.047Z,101100.53
2023-01-29T23:54:49.384Z,101094.75
2023-01-29T23:57:17.351Z,101096.63
2023-01-29T23:59:45.371Z,101091.31
